createdAt,value
2022-10-12T00:00:19.483Z,78.07
2022-10-12T00:02:46.880Z,78.38
2022-10-12T00:05:14.304Z,78.26
2022-10-12T00:07:43.091Z,77.66
2022-10-12T00:10:10.502Z,78.74
2022-10-12T00:12:37.888Z,78.33
2022-10-12T00:15:06.206Z,78.96
2022-10-12T00:17:33.628Z,78.10
2022-10-12T00:20:01.049Z,78.02
2022-10-12T00:22:28.467Z,78.76
2022-10-12T00:24:57.174Z,78.84
2022-10-12T00:27:24.733Z,77.91
2022-10-12T00:29:52.161Z,77.30
2022-10-12T00:32:20.224Z,79.04
2022-10-12T00:34:47.594Z,78.98
2022-10-12T00:37:14.992Z,79.18
2022-10-12T00:39:42.363Z,77.50
2022-10-12T00:42:13.396Z,78.42
2022-10-12T00:44:44.500Z,77.06
2022-10-12T00:47:19.547Z,78.30
2022-10-12T00:49:51.264Z,78.51
2022-10-12T00:52:24.095Z,78.09
2022-10-12T00:54:54.627Z,80.61
2022-10-12T00:57:24.434Z,78.50
2022-10-12T00:59:56.644Z,80.06
2022-10-12T01:02:26.925Z,79.72
2022-10-12T01:04:54.835Z,78.83
2022-10-12T01:07:22.234Z,79.49
2022-10-12T01:09:49.978Z,79.94
2022-10-12T01:12:18.319Z,80.84
2022-10-12T01:14:47.132Z,78.97
2022-10-12T01:17:24.106Z,78.99
2022-10-12T01:20:07.577Z,77.56
2022-10-12T01:22:43.000Z,78.79
2022-10-12T01:25:22.874Z,78.51
2022-10-12T01:27:53.867Z,78.76
2022-10-12T01:30:23.969Z,79.13
2022-10-12T01:33:06.740Z,78.57
2022-10-12T01:35:40.723Z,80.53
2022-10-12T01:38:18.884Z,80.81
2022-10-12T01:40:54.853Z,80.37
2022-10-12T01:43:23.559Z,80.23
2022-10-12T01:45:52.329Z,80.49
2022-10-12T01:48:19.865Z,80.61
2022-10-12T01:50:50.838Z,81.83
2022-10-12T01:53:32.363Z,80.11
2022-10-12T01:56:08.868Z,80.00
2022-10-12T01:58:50.748Z,80.51
2022-10-12T02:01:26.212Z,80.05
2022-10-12T02:04:01.928Z,80.71
2022-10-12T02:06:33.751Z,81.05
2022-10-12T02:09:06.973Z,81.25
2022-10-12T02:11:38.409Z,81.49
2022-10-12T02:14:10.117Z,80.68
2022-10-12T02:16:43.053Z,80.73
2022-10-12T02:19:14.469Z,80.52
2022-10-12T02:21:42.235Z,81.23
2022-10-12T02:24:12.566Z,80.82
2022-10-12T02:26:43.627Z,80.50
2022-10-12T02:29:14.495Z,81.93
2022-10-12T02:31:52.147Z,82.28
2022-10-12T02:34:24.572Z,81.83
2022-10-12T02:36:57.704Z,82.62
2022-10-12T02:39:31.186Z,81.76
2022-10-12T02:42:04.854Z,80.67
2022-10-12T02:44:35.573Z,80.48
2022-10-12T02:47:07.924Z,82.24
2022-10-12T02:49:36.976Z,81.85
2022-10-12T02:52:06.700Z,82.33
2022-10-12T02:54:34.422Z,81.58
2022-10-12T02:57:01.888Z,83.11
2022-10-12T02:59:29.428Z,82.33
2022-10-12T03:01:56.837Z,81.89
2022-10-12T03:04:25.611Z,81.21
2022-10-12T03:06:53.056Z,81.92
2022-10-12T03:09:20.753Z,81.96
2022-10-12T03:11:48.245Z,81.82
2022-10-12T03:14:16.803Z,81.90
2022-10-12T03:16:46.462Z,82.62
2022-10-12T03:19:14.124Z,82.14
2022-10-12T03:21:42.850Z,81.75
2022-10-12T03:24:10.305Z,82.07
2022-10-12T03:26:37.754Z,82.08
2022-10-12T03:29:05.459Z,82.24
2022-10-12T03:31:32.857Z,83.02
2022-10-12T03:34:00.499Z,82.45
2022-10-12T03:36:27.940Z,82.37
2022-10-12T03:38:56.672Z,82.42
2022-10-12T03:41:24.073Z,82.54
2022-10-12T03:43:51.637Z,82.16
2022-10-12T03:46:19.051Z,82.67
2022-10-12T03:48:46.464Z,82.36
2022-10-12T03:51:13.964Z,82.69
2022-10-12T03:53:45.429Z,82.81
2022-10-12T03:56:14.527Z,82.50
2022-10-12T03:58:41.936Z,82.81
2022-10-12T04:01:09.367Z,82.52
2022-10-12T04:03:36.786Z,81.73
2022-10-12T04:06:04.725Z,81.53
2022-10-12T04:08:32.137Z,81.42
2022-10-12T04:10:59.586Z,81.08
2022-10-12T04:13:28.306Z,81.01
2022-10-12T04:15:55.696Z,82.18
2022-10-12T04:18:23.142Z,82.41
2022-10-12T04:20:50.917Z,82.29
2022-10-12T04:23:18.307Z,81.12
2022-10-12T04:25:45.659Z,80.69
2022-10-12T04:28:13.418Z,80.71
2022-10-12T04:30:42.189Z,80.59
2022-10-12T04:33:09.605Z,81.34
2022-10-12T04:35:37.203Z,81.53
2022-10-12T04:38:05.117Z,81.47
2022-10-12T04:40:32.552Z,90.11
2022-10-12T04:42:59.961Z,84.44
2022-10-12T04:45:27.425Z,80.16
2022-10-12T04:47:56.243Z,80.97
2022-10-12T04:50:29.724Z,82.05
2022-10-12T04:52:57.481Z,82.16
2022-10-12T04:55:25.075Z,81.73
2022-10-12T04:57:52.448Z,81.35
2022-10-12T05:00:19.863Z,81.75
2022-10-12T05:02:47.757Z,82.45
2022-10-12T05:05:16.633Z,81.82
2022-10-12T05:07:44.084Z,82.00
2022-10-12T05:10:11.741Z,81.68
2022-10-12T05:12:39.471Z,81.68
2022-10-12T05:15:08.249Z,82.33
2022-10-12T05:17:35.708Z,82.83
2022-10-12T05:20:03.305Z,81.79
2022-10-12T05:22:32.270Z,82.36
2022-10-12T05:24:59.671Z,83.02
2022-10-12T05:27:27.128Z,82.15
2022-10-12T05:29:54.668Z,82.08
2022-10-12T05:32:22.063Z,82.44
2022-10-12T05:34:49.472Z,81.70
2022-10-12T05:37:17.343Z,81.57
2022-10-12T05:39:46.672Z,81.46
2022-10-12T05:42:14.045Z,81.83
2022-10-12T05:44:41.422Z,82.39
2022-10-12T05:47:08.864Z,82.70
2022-10-12T05:49:36.304Z,82.60
2022-10-12T05:52:03.965Z,82.36
2022-10-12T05:54:31.399Z,82.68
2022-10-12T05:57:00.150Z,82.30
2022-10-12T05:59:27.546Z,82.20
2022-10-12T06:01:55.067Z,82.28
2022-10-12T06:04:22.489Z,82.05
2022-10-12T06:06:49.907Z,82.17
2022-10-12T06:09:17.357Z,82.48
2022-10-12T06:11:44.818Z,81.25
2022-10-12T06:14:15.168Z,81.58
2022-10-12T06:16:42.681Z,82.46
2022-10-12T06:19:11.755Z,81.45
2022-10-12T06:21:39.373Z,82.20
2022-10-12T06:24:07.321Z,81.66
2022-10-12T06:26:34.991Z,81.26
2022-10-12T06:29:02.374Z,81.14
2022-10-12T06:31:32.415Z,80.74
2022-10-12T06:33:59.848Z,81.32
2022-10-12T06:36:27.254Z,81.79
2022-10-12T06:38:55.173Z,80.06
2022-10-12T06:41:22.682Z,80.10
2022-10-12T06:43:50.071Z,80.54
2022-10-12T06:46:17.631Z,80.90
2022-10-12T06:48:46.404Z,80.65
2022-10-12T06:51:13.909Z,79.62
2022-10-12T06:53:41.284Z,79.99
2022-10-12T06:56:09.635Z,81.04
2022-10-12T06:58:37.385Z,79.97
2022-10-12T07:01:05.637Z,81.22
2022-10-12T07:03:33.104Z,80.97
2022-10-12T07:06:08.920Z,79.09
2022-10-12T07:08:36.328Z,79.40
2022-10-12T07:11:05.037Z,79.28
2022-10-12T07:13:32.722Z,78.92
2022-10-12T07:16:00.289Z,78.49
2022-10-12T07:18:27.806Z,77.20
2022-10-12T07:20:59.639Z,78.21
2022-10-12T07:23:28.491Z,77.63
2022-10-12T07:25:56.071Z,77.43
2022-10-12T07:28:23.572Z,78.42
2022-10-12T07:30:51.330Z,76.47
2022-10-12T07:33:18.793Z,76.48
2022-10-12T07:36:12.828Z,77.11
2022-10-12T07:38:44.992Z,75.97
2022-10-12T07:41:12.910Z,74.73
2022-10-12T07:43:40.340Z,74.15
2022-10-12T07:46:08.802Z,74.22
2022-10-12T07:48:36.316Z,73.02
2022-10-12T07:51:05.192Z,73.42
2022-10-12T07:53:34.832Z,72.32
2022-10-12T07:56:05.327Z,72.32
2022-10-12T07:58:32.998Z,71.61
2022-10-12T08:01:05.995Z,72.19
2022-10-12T08:03:33.455Z,73.12
2022-10-12T08:06:01.176Z,71.96
2022-10-12T08:08:28.599Z,71.98
2022-10-12T08:10:57.736Z,71.83
2022-10-12T08:13:26.470Z,71.47
2022-10-12T08:15:54.101Z,72.09
2022-10-12T08:18:21.590Z,71.92
2022-10-12T08:20:49.161Z,70.82
2022-10-12T08:23:16.612Z,69.68
2022-10-12T08:25:51.677Z,69.45
2022-10-12T08:28:19.142Z,68.66
2022-10-12T08:30:47.954Z,68.37
2022-10-12T08:33:15.936Z,68.94
2022-10-12T08:35:43.959Z,69.08
2022-10-12T08:38:13.225Z,68.80
2022-10-12T08:40:50.678Z,68.49
2022-10-12T08:43:29.197Z,68.37
2022-10-12T08:46:00.725Z,67.35
2022-10-12T08:48:32.541Z,68.64
2022-10-12T08:51:03.805Z,69.03
2022-10-12T08:53:36.445Z,68.59
2022-10-12T08:56:03.963Z,67.86
2022-10-12T08:58:34.047Z,67.66
2022-10-12T09:01:21.966Z,67.63
2022-10-12T09:04:02.534Z,66.93
2022-10-12T09:06:35.896Z,66.06
2022-10-12T09:09:09.875Z,66.63
2022-10-12T09:11:55.122Z,66.66
2022-10-12T09:14:27.754Z,66.20
2022-10-12T09:16:57.584Z,67.85
2022-10-12T09:19:33.326Z,66.63
2022-10-12T09:22:02.276Z,65.86
2022-10-12T09:24:35.523Z,65.60
2022-10-12T09:27:14.547Z,65.27
2022-10-12T09:29:42.876Z,65.55
2022-10-12T09:32:35.217Z,66.83
2022-10-12T09:35:04.849Z,65.36
2022-10-12T09:37:34.232Z,64.69
2022-10-12T09:40:02.159Z,63.95
2022-10-12T09:42:29.558Z,64.90
2022-10-12T09:45:00.313Z,63.61
2022-10-12T09:47:31.441Z,65.39
2022-10-12T09:50:01.062Z,64.47
2022-10-12T09:52:31.837Z,64.21
2022-10-12T09:55:05.216Z,64.78
2022-10-12T09:57:35.060Z,64.23
2022-10-12T10:00:06.360Z,62.44
2022-10-12T10:02:48.711Z,62.99
2022-10-12T10:05:25.131Z,63.30
2022-10-12T10:07:52.740Z,64.07
2022-10-12T10:10:28.273Z,62.73
2022-10-12T10:13:01.097Z,62.06
2022-10-12T10:15:31.243Z,61.98
2022-10-12T10:18:01.909Z,62.55
2022-10-12T10:20:32.810Z,62.45
2022-10-12T10:23:01.301Z,61.96
2022-10-12T10:25:29.043Z,62.43
2022-10-12T10:28:22.580Z,62.79
2022-10-12T10:30:59.060Z,61.64
2022-10-12T10:33:27.882Z,61.39
2022-10-12T10:36:00.313Z,61.81
2022-10-12T10:38:28.994Z,62.71
2022-10-12T10:40:58.066Z,61.17
2022-10-12T10:43:29.728Z,62.41
2022-10-12T10:45:59.921Z,60.12
2022-10-12T10:48:32.020Z,60.76
2022-10-12T10:51:02.296Z,60.10
2022-10-12T10:53:34.040Z,58.95
2022-10-12T10:56:06.486Z,59.57
2022-10-12T10:58:38.184Z,60.06
2022-10-12T11:01:16.452Z,59.76
2022-10-12T11:03:54.384Z,59.84
2022-10-12T11:06:29.661Z,58.61
2022-10-12T11:09:03.763Z,59.32
2022-10-12T11:11:36.007Z,59.32
2022-10-12T11:14:10.667Z,59.85
2022-10-12T11:16:44.598Z,59.65
2022-10-12T11:19:25.409Z,58.44
2022-10-12T11:21:57.452Z,58.97
2022-10-12T11:24:29.411Z,58.70
2022-10-12T11:27:02.758Z,57.76
2022-10-12T11:29:30.598Z,58.12
2022-10-12T11:32:04.057Z,58.28
2022-10-12T11:34:43.410Z,57.68
2022-10-12T11:37:20.316Z,58.77
2022-10-12T11:39:53.567Z,58.80
2022-10-12T11:42:32.004Z,59.12
2022-10-12T11:45:01.941Z,59.22
2022-10-12T11:47:35.433Z,57.80
2022-10-12T11:50:08.266Z,58.59
2022-10-12T11:52:41.702Z,57.13
2022-10-12T11:55:28.073Z,56.59
2022-10-12T11:58:00.044Z,57.89
2022-10-12T12:00:38.113Z,57.11
2022-10-12T12:03:19.873Z,56.37
2022-10-12T12:05:48.704Z,57.76
2022-10-12T12:08:24.172Z,56.66
2022-10-12T12:11:05.369Z,55.54
2022-10-12T12:13:34.993Z,56.01
2022-10-12T12:16:33.609Z,56.39
2022-10-12T12:19:16.030Z,55.37
2022-10-12T12:22:14.515Z,56.25
2022-10-12T12:24:53.347Z,55.93
2022-10-12T12:27:31.511Z,56.13
2022-10-12T12:30:01.172Z,56.65
2022-10-12T12:32:42.819Z,56.25
2022-10-12T12:35:21.057Z,57.57
2022-10-12T12:37:50.347Z,57.05
2022-10-12T12:40:24.541Z,55.74
2022-10-12T12:42:51.967Z,56.93
2022-10-12T12:45:41.985Z,56.59
2022-10-12T12:48:10.818Z,55.78
2022-10-12T12:50:41.633Z,55.81
2022-10-12T12:53:18.519Z,54.99
2022-10-12T12:56:03.487Z,55.32
2022-10-12T12:58:49.088Z,55.70
2022-10-12T13:01:45.349Z,54.45
2022-10-12T13:04:41.847Z,55.18
2022-10-12T13:07:34.824Z,54.73
2022-10-12T13:10:17.649Z,56.40
2022-10-12T13:13:02.592Z,55.92
2022-10-12T13:15:38.504Z,54.88
2022-10-12T13:18:47.352Z,55.81
2022-10-12T13:21:19.180Z,57.00
2022-10-12T13:23:49.234Z,55.46
2022-10-12T13:26:22.719Z,55.45
2022-10-12T13:28:50.744Z,54.66
2022-10-12T13:31:24.087Z,54.39
2022-10-12T13:34:00.385Z,55.43
2022-10-12T13:36:30.175Z,55.45
2022-10-12T13:38:59.528Z,54.20
2022-10-12T13:41:31.294Z,55.49
2022-10-12T13:44:00.648Z,53.93
2022-10-12T13:46:41.637Z,55.13
2022-10-12T13:49:17.834Z,54.83
2022-10-12T13:51:48.408Z,54.46
2022-10-12T13:54:18.601Z,54.93
2022-10-12T13:56:49.055Z,54.74
2022-10-12T13:59:19.792Z,54.58
2022-10-12T14:01:53.031Z,54.53
2022-10-12T14:04:20.821Z,54.97
2022-10-12T14:06:53.899Z,54.52
2022-10-12T14:09:25.062Z,55.11
2022-10-12T14:11:55.444Z,56.43
2022-10-12T14:14:29.336Z,55.99
2022-10-12T14:16:56.807Z,55.83
2022-10-12T14:19:34.363Z,55.33
2022-10-12T14:22:03.438Z,54.53
2022-10-12T14:24:31.616Z,54.92
2022-10-12T14:27:02.736Z,54.41
2022-10-12T14:29:35.710Z,55.35
2022-10-12T14:32:05.630Z,55.89
2022-10-12T14:34:42.400Z,55.41
2022-10-12T14:37:36.848Z,55.35
2022-10-12T14:40:35.476Z,55.31
2022-10-12T14:43:08.035Z,55.30
2022-10-12T14:45:35.509Z,54.64
2022-10-12T14:48:04.974Z,54.36
2022-10-12T14:50:33.296Z,54.20
2022-10-12T14:53:04.412Z,54.66
2022-10-12T14:55:34.983Z,55.05
2022-10-12T14:58:03.643Z,55.26
2022-10-12T15:00:34.878Z,55.10
2022-10-12T15:03:02.820Z,55.00
2022-10-12T15:05:32.520Z,55.17
2022-10-12T15:08:00.693Z,55.68
2022-10-12T15:10:29.167Z,54.89
2022-10-12T15:12:56.686Z,56.63
2022-10-12T15:15:31.450Z,56.53
2022-10-12T15:18:00.530Z,57.26
2022-10-12T15:20:29.658Z,57.31
2022-10-12T15:22:57.471Z,56.82
2022-10-12T15:25:29.060Z,57.45
2022-10-12T15:27:56.508Z,56.65
2022-10-12T15:30:23.894Z,58.68
2022-10-12T15:32:51.315Z,57.55
2022-10-12T15:35:23.857Z,59.09
2022-10-12T15:37:52.173Z,56.60
2022-10-12T15:40:21.513Z,58.11
2022-10-12T15:42:49.098Z,60.50
2022-10-12T15:45:19.788Z,58.90
2022-10-12T15:47:47.884Z,57.15
2022-10-12T15:50:16.339Z,57.28
2022-10-12T15:52:45.349Z,58.35
2022-10-12T15:55:16.700Z,69.39
2022-10-12T15:57:44.288Z,61.37
2022-10-12T16:00:13.384Z,64.78
2022-10-12T16:02:41.163Z,59.97
2022-10-12T16:05:17.519Z,62.18
2022-10-12T16:07:46.464Z,59.96
2022-10-12T16:10:15.362Z,60.85
2022-10-12T16:12:44.708Z,59.36
2022-10-12T16:15:13.692Z,59.24
2022-10-12T16:17:41.475Z,60.54
2022-10-12T16:20:10.724Z,60.18
2022-10-12T16:22:38.713Z,61.16
2022-10-12T16:25:10.255Z,60.25
2022-10-12T16:27:38.454Z,61.09
2022-10-12T16:30:07.636Z,62.09
2022-10-12T16:32:35.169Z,60.32
2022-10-12T16:35:02.736Z,61.09
2022-10-12T16:37:30.234Z,60.66
2022-10-12T16:39:57.802Z,61.80
2022-10-12T16:42:26.733Z,63.05
2022-10-12T16:44:54.137Z,61.45
2022-10-12T16:47:22.003Z,61.58
2022-10-12T16:49:49.492Z,62.38
2022-10-12T16:52:17.132Z,63.82
2022-10-12T16:54:44.716Z,62.89
2022-10-12T16:57:12.137Z,62.57
2022-10-12T16:59:40.862Z,62.57
2022-10-12T17:02:08.510Z,65.30
2022-10-12T17:04:35.956Z,62.75
2022-10-12T17:07:03.409Z,62.42
2022-10-12T17:09:30.967Z,63.14
2022-10-12T17:11:58.592Z,62.75
2022-10-12T17:14:26.091Z,63.09
2022-10-12T17:16:57.444Z,63.55
2022-10-12T17:19:31.848Z,63.31
2022-10-12T17:22:00.897Z,63.20
2022-10-12T17:24:30.327Z,63.80
2022-10-12T17:26:58.262Z,64.24
2022-10-12T17:29:27.902Z,63.92
2022-10-12T17:31:57.927Z,64.08
2022-10-12T17:34:27.242Z,64.60
2022-10-12T17:36:56.365Z,64.15
2022-10-12T17:39:25.060Z,64.83
2022-10-12T17:41:53.118Z,64.79
2022-10-12T17:44:20.826Z,64.64
2022-10-12T17:46:49.616Z,64.73
2022-10-12T17:49:24.474Z,64.79
2022-10-12T17:51:52.476Z,65.04
2022-10-12T17:54:20.921Z,65.23
2022-10-12T17:56:48.697Z,64.84
2022-10-12T17:59:19.151Z,64.99
2022-10-12T18:01:47.337Z,65.18
2022-10-12T18:04:14.892Z,65.76
2022-10-12T18:06:44.048Z,65.73
2022-10-12T18:09:11.951Z,65.87
2022-10-12T18:11:39.830Z,66.18
2022-10-12T18:14:09.772Z,65.18
2022-10-12T18:16:38.387Z,66.18
2022-10-12T18:19:07.674Z,66.06
2022-10-12T18:21:35.530Z,66.21
2022-10-12T18:24:07.336Z,66.90
2022-10-12T18:26:36.433Z,66.48
2022-10-12T18:29:05.145Z,65.97
2022-10-12T18:31:32.558Z,66.97
2022-10-12T18:33:59.974Z,67.29
2022-10-12T18:36:28.615Z,66.42
2022-10-12T18:38:56.127Z,66.79
2022-10-12T18:41:26.180Z,66.13
2022-10-12T18:43:57.763Z,66.79
2022-10-12T18:46:26.821Z,67.25
2022-10-12T18:48:54.369Z,67.33
2022-10-12T18:51:24.933Z,66.79
2022-10-12T18:53:52.340Z,66.41
2022-10-12T18:56:21.231Z,66.65
2022-10-12T18:58:50.228Z,67.24
2022-10-12T19:01:19.937Z,67.26
2022-10-12T19:03:48.127Z,67.02
2022-10-12T19:06:18.153Z,67.33
2022-10-12T19:08:47.587Z,67.41
2022-10-12T19:11:17.555Z,66.95
2022-10-12T19:13:45.695Z,67.41
2022-10-12T19:16:17.159Z,67.87
2022-10-12T19:18:44.644Z,68.13
2022-10-12T19:21:14.113Z,68.13
2022-10-12T19:23:42.231Z,68.04
2022-10-12T19:26:11.998Z,67.55
2022-10-12T19:28:39.796Z,67.48
2022-10-12T19:31:09.859Z,67.41
2022-10-12T19:33:39.120Z,67.59
2022-10-12T19:36:08.248Z,68.05
2022-10-12T19:38:35.952Z,67.76
2022-10-12T19:41:03.945Z,68.04
2022-10-12T19:43:33.287Z,69.52
2022-10-12T19:46:03.382Z,69.25
2022-10-12T19:48:30.897Z,69.82
2022-10-12T19:51:01.385Z,68.93
2022-10-12T19:53:29.233Z,69.84
2022-10-12T19:55:59.951Z,70.15
2022-10-12T19:58:27.473Z,69.38
2022-10-12T20:01:01.876Z,69.25
2022-10-12T20:03:29.631Z,68.22
2022-10-12T20:05:57.184Z,68.56
2022-10-12T20:08:25.945Z,68.18
2022-10-12T20:10:53.956Z,68.06
2022-10-12T20:13:21.598Z,67.95
2022-10-12T20:15:52.918Z,67.88
2022-10-12T20:18:20.812Z,67.87
2022-10-12T20:20:48.812Z,68.19
2022-10-12T20:23:16.584Z,68.58
2022-10-12T20:25:46.861Z,67.58
2022-10-12T20:28:14.619Z,68.16
2022-10-12T20:30:42.892Z,68.06
2022-10-12T20:33:11.181Z,68.88
2022-10-12T20:35:38.597Z,68.73
2022-10-12T20:38:06.013Z,68.89
2022-10-12T20:40:33.422Z,68.69
2022-10-12T20:43:06.235Z,69.29
2022-10-12T20:45:35.107Z,68.30
2022-10-12T20:48:02.574Z,67.62
2022-10-12T20:50:30.113Z,67.91
2022-10-12T20:53:00.954Z,68.50
2022-10-12T20:55:28.477Z,69.15
2022-10-12T20:57:56.195Z,68.54
2022-10-12T21:00:25.209Z,67.94
2022-10-12T21:02:52.698Z,68.18
2022-10-12T21:05:20.317Z,68.90
2022-10-12T21:07:47.957Z,68.46
2022-10-12T21:10:15.419Z,68.79
2022-10-12T21:12:42.834Z,68.57
2022-10-12T21:15:11.464Z,68.78
2022-10-12T21:17:40.176Z,68.57
2022-10-12T21:20:08.760Z,68.94
2022-10-12T21:22:36.202Z,69.52
2022-10-12T21:25:03.810Z,69.93
2022-10-12T21:27:31.312Z,69.57
2022-10-12T21:29:58.696Z,71.50
2022-10-12T21:32:26.170Z,74.29
2022-10-12T21:34:54.893Z,72.57
2022-10-12T21:37:22.485Z,76.21
2022-10-12T21:39:54.374Z,73.19
2022-10-12T21:42:22.044Z,73.19
2022-10-12T21:44:51.157Z,73.58
2022-10-12T21:47:18.637Z,72.05
2022-10-12T21:49:46.165Z,75.14
2022-10-12T21:52:15.056Z,74.03
2022-10-12T21:54:42.766Z,75.84
2022-10-12T21:57:11.359Z,76.27
2022-10-12T21:59:38.749Z,74.17
2022-10-12T22:02:06.307Z,72.56
2022-10-12T22:04:34.238Z,75.14
2022-10-12T22:07:01.621Z,72.97
2022-10-12T22:09:33.708Z,76.22
2022-10-12T22:12:01.097Z,77.04
2022-10-12T22:14:28.545Z,76.29
2022-10-12T22:16:56.029Z,74.83
2022-10-12T22:19:23.813Z,73.87
2022-10-12T22:21:52.692Z,73.49
2022-10-12T22:24:20.984Z,73.31
2022-10-12T22:26:50.067Z,73.53
2022-10-12T22:29:17.484Z,73.09
2022-10-12T22:31:46.307Z,73.00
2022-10-12T22:34:13.842Z,71.88
2022-10-12T22:36:41.347Z,72.24
2022-10-12T22:39:08.764Z,73.25
2022-10-12T22:41:36.165Z,72.19
2022-10-12T22:44:05.130Z,72.44
2022-10-12T22:46:32.578Z,72.46
2022-10-12T22:49:00.725Z,73.19
2022-10-12T22:51:31.930Z,74.03
2022-10-12T22:53:59.781Z,74.33
2022-10-12T22:56:27.255Z,73.91
2022-10-12T22:58:55.831Z,72.58
2022-10-12T23:01:25.181Z,73.66
2022-10-12T23:03:53.015Z,73.77
2022-10-12T23:06:20.943Z,72.96
2022-10-12T23:08:48.987Z,72.49
2022-10-12T23:11:18.749Z,73.11
2022-10-12T23:13:48.073Z,72.35
2022-10-12T23:16:18.131Z,72.83
2022-10-12T23:18:47.075Z,73.47
2022-10-12T23:21:16.473Z,74.32
2022-10-12T23:23:45.817Z,73.16
2022-10-12T23:26:14.998Z,72.40
2022-10-12T23:28:42.610Z,72.81
2022-10-12T23:31:12.190Z,73.11
2022-10-12T23:33:39.834Z,73.52
2022-10-12T23:36:10.939Z,72.89
2022-10-12T23:38:40.209Z,72.69
2022-10-12T23:41:08.089Z,72.40
2022-10-12T23:43:36.073Z,72.35
2022-10-12T23:46:04.389Z,72.86
2022-10-12T23:48:32.221Z,73.35
2022-10-12T23:50:59.725Z,73.97
2022-10-12T23:53:29.254Z,74.77
2022-10-12T23:55:56.799Z,74.84
2022-10-12T23:58:24.200Z,73.09
